createdAt,value
2023-06-05T00:02:24.501Z,68.49
2023-06-05T00:04:51.034Z,68.53
2023-06-05T00:07:17.789Z,69.15
2023-06-05T00:09:44.232Z,69.00
2023-06-05T00:12:10.952Z,69.53
2023-06-05T00:14:37.296Z,69.87
2023-06-05T00:17:04.307Z,69.51
2023-06-05T00:19:30.733Z,70.04
2023-06-05T00:21:57.127Z,70.00
2023-06-05T00:24:23.685Z,70.59
2023-06-05T00:26:50.268Z,71.11
2023-06-05T00:29:16.822Z,70.92
2023-06-05T00:31:44.440Z,71.30
2023-06-05T00:34:10.932Z,71.59
2023-06-05T00:36:37.272Z,71.50
2023-06-05T00:39:03.891Z,71.41
2023-06-05T00:41:30.624Z,71.48
2023-06-05T00:43:57.308Z,71.62
2023-06-05T00:46:23.865Z,71.68
2023-06-05T00:48:51.199Z,71.97
2023-06-05T00:51:17.688Z,71.97
2023-06-05T00:53:48.125Z,72.30
2023-06-05T00:56:14.985Z,72.48
2023-06-05T00:58:41.591Z,73.01
2023-06-05T01:01:11.679Z,73.27
2023-06-05T01:03:38.364Z,72.68
2023-06-05T01:06:04.860Z,73.74
2023-06-05T01:08:33.102Z,73.31
2023-06-05T01:11:02.804Z,73.80
2023-06-05T01:13:33.284Z,73.33
2023-06-05T01:16:00.230Z,73.20
2023-06-05T01:18:27.360Z,73.31
2023-06-05T01:20:53.717Z,73.57
2023-06-05T01:23:20.160Z,73.64
2023-06-05T01:25:47.581Z,73.19
2023-06-05T01:28:22.255Z,73.73
2023-06-05T01:31:12.931Z,74.17
2023-06-05T01:33:45.634Z,73.64
2023-06-05T01:36:14.620Z,73.37
2023-06-05T01:38:43.286Z,73.25
2023-06-05T01:41:11.813Z,73.17
2023-06-05T01:43:39.233Z,73.25
2023-06-05T01:46:06.525Z,73.50
2023-06-05T01:48:33.587Z,73.76
2023-06-05T01:51:02.815Z,73.38
2023-06-05T01:53:29.877Z,73.70
2023-06-05T01:55:56.733Z,73.73
2023-06-05T01:58:23.520Z,73.53
2023-06-05T02:00:50.170Z,73.89
2023-06-05T02:03:16.987Z,74.49
2023-06-05T02:05:44.765Z,74.05
2023-06-05T02:08:11.552Z,75.16
2023-06-05T02:10:38.222Z,74.44
2023-06-05T02:13:04.769Z,74.55
2023-06-05T02:15:31.253Z,75.23
2023-06-05T02:17:57.677Z,75.41
2023-06-05T02:20:26.323Z,75.66
2023-06-05T02:22:52.810Z,75.86
2023-06-05T02:25:23.176Z,75.88
2023-06-05T02:27:49.556Z,76.77
2023-06-05T02:30:15.955Z,76.58
2023-06-05T02:32:42.418Z,76.82
2023-06-05T02:35:09.595Z,76.26
2023-06-05T02:37:36.034Z,77.11
2023-06-05T02:40:02.433Z,76.63
2023-06-05T02:42:28.983Z,76.67
2023-06-05T02:44:55.315Z,76.69
2023-06-05T02:47:21.748Z,76.78
2023-06-05T02:49:48.100Z,76.70
2023-06-05T02:52:14.782Z,76.66
2023-06-05T02:54:41.472Z,76.69
2023-06-05T02:57:07.904Z,77.07
2023-06-05T02:59:37.294Z,77.20
2023-06-05T03:02:03.805Z,77.36
2023-06-05T03:04:30.268Z,77.92
2023-06-05T03:06:56.681Z,77.98
2023-06-05T03:09:23.072Z,77.77
2023-06-05T03:11:49.780Z,77.83
2023-06-05T03:14:16.135Z,77.70
2023-06-05T03:16:42.714Z,78.82
2023-06-05T03:19:10.188Z,78.55
2023-06-05T03:21:37.252Z,78.55
2023-06-05T03:24:04.128Z,78.35
2023-06-05T03:26:30.838Z,78.27
2023-06-05T03:28:57.527Z,78.23
2023-06-05T03:31:24.250Z,78.04
2023-06-05T03:33:50.793Z,78.32
2023-06-05T03:36:17.172Z,78.68
2023-06-05T03:38:44.272Z,78.61
2023-06-05T03:41:10.933Z,78.43
2023-06-05T03:43:37.778Z,78.50
2023-06-05T03:46:04.761Z,78.52
2023-06-05T03:48:31.306Z,78.51
2023-06-05T03:50:57.641Z,78.51
2023-06-05T03:53:24.222Z,78.31
2023-06-05T03:55:50.560Z,78.50
2023-06-05T03:58:17.399Z,78.74
2023-06-05T04:00:48.872Z,78.29
2023-06-05T04:03:16.040Z,78.35
2023-06-05T04:05:43.358Z,77.87
2023-06-05T04:08:10.532Z,77.67
2023-06-05T04:10:37.840Z,77.34
2023-06-05T04:13:04.703Z,76.85
2023-06-05T04:15:31.425Z,76.82
2023-06-05T04:17:57.929Z,76.89
2023-06-05T04:20:24.578Z,76.47
2023-06-05T04:22:51.358Z,76.20
2023-06-05T04:25:18.374Z,76.01
2023-06-05T04:27:46.854Z,76.32
2023-06-05T04:30:14.302Z,76.35
2023-06-05T04:32:41.635Z,75.66
2023-06-05T04:35:10.585Z,75.45
2023-06-05T04:37:38.574Z,75.64
2023-06-05T04:40:07.303Z,75.18
2023-06-05T04:42:33.882Z,74.82
2023-06-05T04:45:04.984Z,75.04
2023-06-05T04:47:32.634Z,74.95
2023-06-05T04:50:00.221Z,75.50
2023-06-05T04:52:27.074Z,75.68
2023-06-05T04:54:53.830Z,75.44
2023-06-05T04:57:20.447Z,75.20
2023-06-05T04:59:47.425Z,75.62
2023-06-05T05:02:14.198Z,75.38
2023-06-05T05:04:40.752Z,75.31
2023-06-05T05:07:07.471Z,75.03
2023-06-05T05:09:33.988Z,74.61
2023-06-05T05:12:00.652Z,75.59
2023-06-05T05:14:27.417Z,74.84
2023-06-05T05:16:54.420Z,74.42
2023-06-05T05:19:20.772Z,74.14
2023-06-05T05:21:47.740Z,74.29
2023-06-05T05:24:14.097Z,74.78
2023-06-05T05:26:40.796Z,75.19
2023-06-05T05:29:07.939Z,75.10
2023-06-05T05:31:34.730Z,74.75
2023-06-05T05:34:02.175Z,74.33
2023-06-05T05:36:28.654Z,73.79
2023-06-05T05:38:55.317Z,73.40
2023-06-05T05:41:22.090Z,72.88
2023-06-05T05:43:48.471Z,72.79
2023-06-05T05:46:15.357Z,72.71
2023-06-05T05:48:42.012Z,72.83
2023-06-05T05:51:09.388Z,72.59
2023-06-05T05:53:36.220Z,72.62
2023-06-05T05:56:03.297Z,72.36
2023-06-05T05:58:29.709Z,71.93
2023-06-05T06:00:56.151Z,71.78
2023-06-05T06:03:22.742Z,71.49
2023-06-05T06:05:49.094Z,71.31
2023-06-05T06:08:15.693Z,70.84
2023-06-05T06:10:42.402Z,70.66
2023-06-05T06:13:08.877Z,70.19
2023-06-05T06:15:35.280Z,70.44
2023-06-05T06:18:01.862Z,70.43
2023-06-05T06:20:30.074Z,70.64
2023-06-05T06:22:56.476Z,70.72
2023-06-05T06:25:24.893Z,71.35
2023-06-05T06:27:54.078Z,70.58
2023-06-05T06:30:20.614Z,69.70
2023-06-05T06:32:47.676Z,69.38
2023-06-05T06:35:15.657Z,69.44
2023-06-05T06:37:42.972Z,69.37
2023-06-05T06:40:10.222Z,69.18
2023-06-05T06:42:39.200Z,68.54
2023-06-05T06:45:07.730Z,68.17
2023-06-05T06:47:34.123Z,68.04
2023-06-05T06:50:02.842Z,67.59
2023-06-05T06:52:29.222Z,67.83
2023-06-05T06:55:00.582Z,67.27
2023-06-05T06:57:27.467Z,66.41
2023-06-05T06:59:53.833Z,64.73
2023-06-05T07:02:22.420Z,63.82
2023-06-05T07:04:49.378Z,63.91
2023-06-05T07:07:17.598Z,63.47
2023-06-05T07:09:46.092Z,63.49
2023-06-05T07:12:15.122Z,62.64
2023-06-05T07:14:42.533Z,61.97
2023-06-05T07:17:10.490Z,62.46
2023-06-05T07:19:37.324Z,62.23
2023-06-05T07:22:05.141Z,61.45
2023-06-05T07:24:32.284Z,61.30
2023-06-05T07:27:01.780Z,60.63
2023-06-05T07:29:28.632Z,59.48
2023-06-05T07:31:59.211Z,58.11
2023-06-05T07:34:27.444Z,57.69
2023-06-05T07:36:54.607Z,57.86
2023-06-05T07:39:22.117Z,57.33
2023-06-05T07:41:49.129Z,56.81
2023-06-05T07:44:18.991Z,57.20
2023-06-05T07:46:48.220Z,55.63
2023-06-05T07:49:15.135Z,54.27
2023-06-05T07:51:41.470Z,53.57
2023-06-05T07:54:10.087Z,54.10
2023-06-05T07:56:37.384Z,52.83
2023-06-05T07:59:05.096Z,51.04
2023-06-05T08:01:33.596Z,47.44
2023-06-05T08:04:00.117Z,48.48
2023-06-05T08:06:26.641Z,48.23
2023-06-05T08:08:53.374Z,46.95
2023-06-05T08:11:20.007Z,45.91
2023-06-05T08:13:47.571Z,45.12
2023-06-05T08:16:14.058Z,44.21
2023-06-05T08:18:40.700Z,43.16
2023-06-05T08:21:09.585Z,42.52
2023-06-05T08:23:36.429Z,41.76
2023-06-05T08:26:03.483Z,38.45
2023-06-05T08:28:30.637Z,38.66
2023-06-05T08:30:57.034Z,36.29
2023-06-05T08:33:24.098Z,37.59
2023-06-05T08:35:50.448Z,34.18
2023-06-05T08:38:17.157Z,35.33
2023-06-05T08:40:45.384Z,31.40
2023-06-05T08:43:12.098Z,31.10
2023-06-05T08:45:38.461Z,32.23
2023-06-05T08:48:07.027Z,31.43
2023-06-05T08:50:34.650Z,30.04
2023-06-05T08:53:03.516Z,30.79
2023-06-05T08:55:30.346Z,30.00
2023-06-05T08:57:56.815Z,29.29
2023-06-05T09:00:23.873Z,30.13
2023-06-05T09:02:50.239Z,29.81
2023-06-05T09:05:19.668Z,28.72
2023-06-05T09:07:46.051Z,28.79
2023-06-05T09:10:25.859Z,26.87
2023-06-05T09:12:56.513Z,26.46
2023-06-05T09:15:31.272Z,27.20
2023-06-05T09:18:14.065Z,25.53
2023-06-05T09:20:42.515Z,25.96
2023-06-05T09:23:30.848Z,25.43
2023-06-05T09:25:59.050Z,26.32
2023-06-05T09:28:26.756Z,25.88
2023-06-05T09:30:58.274Z,26.21
2023-06-05T09:33:25.644Z,26.81
2023-06-05T09:36:14.479Z,26.46
2023-06-05T09:38:43.040Z,26.42
2023-06-05T09:41:13.794Z,24.98
2023-06-05T09:43:40.241Z,25.40
2023-06-05T09:46:13.801Z,25.73
2023-06-05T09:48:43.642Z,24.78
2023-06-05T09:51:15.467Z,24.38
2023-06-05T09:53:47.568Z,23.73
2023-06-05T09:56:18.746Z,24.20
2023-06-05T09:58:48.826Z,23.75
2023-06-05T10:01:41.414Z,23.58
2023-06-05T10:04:10.940Z,24.45
2023-06-05T10:06:39.676Z,23.47
2023-06-05T10:09:08.430Z,22.45
2023-06-05T10:11:35.669Z,23.50
2023-06-05T10:14:04.343Z,23.70
2023-06-05T10:16:30.969Z,24.61
2023-06-05T10:18:58.434Z,25.47
2023-06-05T10:21:26.943Z,26.00
2023-06-05T10:24:05.154Z,25.18
2023-06-05T10:27:08.519Z,25.89
2023-06-05T10:30:10.017Z,27.17
2023-06-05T10:33:06.174Z,26.04
2023-06-05T10:35:54.188Z,26.96
2023-06-05T10:38:27.719Z,27.82
2023-06-05T10:40:57.330Z,28.79
2023-06-05T10:43:34.662Z,26.33
2023-06-05T10:49:10.650Z,26.26
2023-06-05T10:51:51.808Z,27.15
2023-06-05T10:54:25.735Z,27.11
2023-06-05T10:56:52.292Z,27.96
2023-06-05T10:59:20.231Z,28.26
2023-06-05T11:02:08.434Z,28.87
2023-06-05T11:04:44.496Z,29.14
2023-06-05T11:07:24.709Z,28.75
2023-06-05T11:10:04.672Z,29.96
2023-06-05T11:12:40.344Z,29.99
2023-06-05T11:15:08.685Z,29.80
2023-06-05T11:17:36.945Z,29.94
2023-06-05T11:20:08.034Z,30.79
2023-06-05T11:22:34.484Z,30.03
2023-06-05T11:25:17.326Z,30.64
2023-06-05T11:27:49.211Z,31.14
2023-06-05T11:30:24.827Z,30.58
2023-06-05T11:32:57.934Z,30.85
2023-06-05T11:35:27.019Z,30.89
2023-06-05T11:38:13.608Z,31.55
2023-06-05T11:40:41.257Z,31.77
2023-06-05T11:43:10.182Z,30.20
2023-06-05T11:45:38.883Z,30.99
2023-06-05T11:48:13.893Z,31.09
2023-06-05T11:50:52.789Z,31.29
2023-06-05T11:53:20.089Z,30.39
2023-06-05T11:55:46.416Z,29.38
2023-06-05T11:58:13.009Z,29.66
2023-06-05T12:00:39.365Z,31.40
2023-06-05T12:03:05.887Z,29.73
2023-06-05T12:05:32.926Z,28.97
2023-06-05T12:07:59.330Z,29.41
2023-06-05T12:10:35.091Z,29.65
2023-06-05T12:13:01.459Z,30.14
2023-06-05T12:15:28.163Z,30.06
2023-06-05T12:17:57.381Z,30.69
2023-06-05T12:20:25.068Z,30.65
2023-06-05T12:22:51.417Z,31.01
2023-06-05T12:25:21.266Z,30.42
2023-06-05T12:27:48.889Z,30.71
2023-06-05T12:30:16.943Z,31.47
2023-06-05T12:32:45.522Z,31.54
2023-06-05T12:35:24.602Z,30.07
2023-06-05T12:37:51.555Z,29.90
2023-06-05T12:40:29.320Z,29.88
2023-06-05T12:43:01.624Z,30.33
2023-06-05T12:45:28.304Z,31.04
2023-06-05T12:47:54.702Z,30.34
2023-06-05T12:50:21.482Z,30.22
2023-06-05T12:52:48.264Z,30.89
2023-06-05T12:55:14.640Z,30.46
2023-06-05T12:57:41.833Z,32.41
2023-06-05T13:00:09.576Z,31.19
2023-06-05T13:02:36.048Z,30.90
2023-06-05T13:05:02.451Z,31.26
2023-06-05T13:07:29.289Z,31.64
2023-06-05T13:09:55.672Z,30.73
2023-06-05T13:12:22.350Z,30.57
2023-06-05T13:14:49.057Z,31.20
2023-06-05T13:17:15.770Z,31.61
2023-06-05T13:19:42.696Z,32.04
2023-06-05T13:22:09.296Z,31.56
2023-06-05T13:24:35.659Z,31.41
2023-06-05T13:27:03.491Z,31.86
2023-06-05T13:29:29.877Z,32.07
2023-06-05T13:31:56.396Z,32.10
2023-06-05T13:34:22.968Z,32.14
2023-06-05T13:36:52.283Z,32.02
2023-06-05T13:39:21.126Z,31.37
2023-06-05T13:41:47.593Z,31.29
2023-06-05T13:44:14.357Z,31.09
2023-06-05T13:46:40.782Z,31.47
2023-06-05T13:49:07.173Z,31.77
2023-06-05T13:51:35.805Z,31.96
2023-06-05T13:54:03.465Z,31.69
2023-06-05T13:56:29.846Z,31.70
2023-06-05T13:58:56.497Z,32.09
2023-06-05T14:01:23.041Z,32.76
2023-06-05T14:03:50.146Z,32.33
2023-06-05T14:06:20.832Z,32.81
2023-06-05T14:08:49.265Z,32.50
2023-06-05T14:11:16.007Z,32.28
2023-06-05T14:13:42.806Z,31.24
2023-06-05T14:16:11.628Z,31.63
2023-06-05T14:18:38.848Z,31.02
2023-06-05T14:21:05.448Z,29.78
2023-06-05T14:23:31.968Z,28.38
2023-06-05T14:25:59.050Z,28.30
2023-06-05T14:28:25.425Z,28.48
2023-06-05T14:30:52.607Z,28.69
2023-06-05T14:33:19.280Z,27.47
2023-06-05T14:35:45.657Z,28.26
2023-06-05T14:38:13.137Z,29.06
2023-06-05T14:40:40.539Z,29.38
2023-06-05T14:43:06.888Z,29.39
2023-06-05T14:45:33.509Z,29.75
2023-06-05T14:48:00.075Z,29.34
2023-06-05T14:50:26.564Z,29.22
2023-06-05T14:52:52.925Z,29.14
2023-06-05T14:55:19.652Z,28.25
2023-06-05T14:57:46.002Z,27.50
2023-06-05T15:00:13.209Z,27.32
2023-06-05T15:02:39.580Z,27.12
2023-06-05T15:05:08.610Z,27.92
2023-06-05T15:07:39.781Z,27.91
2023-06-05T15:10:07.577Z,27.96
2023-06-05T15:12:34.296Z,27.36
2023-06-05T15:15:18.516Z,27.41
2023-06-05T15:17:46.948Z,26.89
2023-06-05T15:20:14.400Z,26.49
2023-06-05T15:22:40.963Z,27.11
2023-06-05T15:25:07.810Z,26.68
2023-06-05T15:27:34.256Z,26.65
2023-06-05T15:30:00.984Z,26.45
2023-06-05T15:32:28.571Z,25.59
2023-06-05T15:34:54.979Z,26.61
2023-06-05T15:37:22.598Z,26.15
2023-06-05T15:39:49.289Z,26.68
2023-06-05T15:42:19.433Z,27.53
2023-06-05T15:44:45.790Z,27.99
2023-06-05T15:47:12.253Z,28.33
2023-06-05T15:49:38.590Z,28.80
2023-06-05T15:52:05.184Z,29.42
2023-06-05T15:54:53.056Z,29.86
2023-06-05T15:57:18.179Z,29.71
2023-06-05T15:59:46.060Z,30.13
2023-06-05T16:02:12.631Z,30.63
2023-06-05T16:04:39.493Z,30.73
2023-06-05T16:07:06.065Z,30.95
2023-06-05T16:09:32.514Z,31.04
2023-06-05T16:11:59.102Z,30.87
2023-06-05T16:14:25.456Z,31.00
2023-06-05T16:16:52.224Z,30.56
2023-06-05T16:19:18.690Z,31.60
2023-06-05T16:21:45.493Z,31.64
2023-06-05T16:24:13.047Z,31.13
2023-06-05T16:26:40.685Z,31.42
2023-06-05T16:29:07.030Z,31.93
2023-06-05T16:31:33.746Z,31.85
2023-06-05T16:34:10.395Z,31.34
2023-06-05T16:36:36.903Z,31.48
2023-06-05T16:39:04.573Z,30.70
2023-06-05T16:41:31.700Z,30.42
2023-06-05T16:43:58.033Z,31.03
2023-06-05T16:46:24.950Z,31.04
2023-06-05T16:48:52.147Z,31.33
2023-06-05T16:51:18.795Z,31.78
2023-06-05T16:53:45.280Z,31.99
2023-06-05T16:56:11.717Z,32.19
2023-06-05T16:58:39.155Z,31.77
2023-06-05T17:01:05.532Z,31.04
2023-06-05T17:03:32.322Z,31.32
2023-06-05T17:05:59.106Z,30.66
2023-06-05T17:08:26.245Z,30.24
2023-06-05T17:10:53.775Z,29.92
2023-06-05T17:13:20.391Z,29.75
2023-06-05T17:15:47.073Z,29.55
2023-06-05T17:18:14.628Z,29.74
2023-06-05T17:20:40.987Z,29.29
2023-06-05T17:23:07.892Z,29.01
2023-06-05T17:25:34.271Z,28.89
2023-06-05T17:28:00.721Z,28.71
2023-06-05T17:30:27.386Z,29.13
2023-06-05T17:32:54.400Z,28.86
2023-06-05T17:35:20.915Z,29.25
2023-06-05T17:37:47.281Z,28.86
2023-06-05T17:40:14.081Z,28.63
2023-06-05T17:42:41.733Z,28.59
2023-06-05T17:45:08.623Z,29.64
2023-06-05T17:47:35.123Z,29.82
2023-06-05T17:50:02.343Z,30.12
2023-06-05T17:52:28.803Z,30.43
2023-06-05T17:54:55.168Z,30.71
2023-06-05T17:57:23.035Z,30.94
2023-06-05T17:59:50.861Z,31.90
2023-06-05T18:02:18.688Z,31.75
2023-06-05T18:04:45.360Z,32.20
2023-06-05T18:07:11.879Z,32.50
2023-06-05T18:09:41.173Z,32.71
2023-06-05T18:12:08.256Z,32.92
2023-06-05T18:14:34.697Z,33.25
2023-06-05T18:17:01.662Z,33.62
2023-06-05T18:19:28.007Z,34.01
2023-06-05T18:21:55.289Z,34.32
2023-06-05T18:24:22.197Z,34.33
2023-06-05T18:26:48.953Z,34.88
2023-06-05T18:29:15.299Z,35.06
2023-06-05T18:31:42.029Z,35.18
2023-06-05T18:34:08.390Z,35.42
2023-06-05T18:36:34.751Z,36.58
2023-06-05T18:39:01.536Z,36.85
2023-06-05T18:41:28.168Z,37.28
2023-06-05T18:43:54.777Z,40.20
2023-06-05T18:46:21.652Z,39.62
2023-06-05T18:48:48.055Z,38.65
2023-06-05T18:51:15.141Z,38.41
2023-06-05T18:53:41.542Z,38.55
2023-06-05T18:56:07.978Z,38.48
2023-06-05T18:58:34.383Z,38.52
2023-06-05T19:01:00.837Z,39.18
2023-06-05T19:03:27.318Z,40.36
2023-06-05T19:05:53.695Z,39.85
2023-06-05T19:08:20.162Z,39.89
2023-06-05T19:10:46.510Z,40.38
2023-06-05T19:13:12.878Z,40.53
2023-06-05T19:15:39.834Z,40.40
2023-06-05T19:18:06.455Z,40.53
2023-06-05T19:20:34.278Z,41.53
2023-06-05T19:23:01.025Z,41.87
2023-06-05T19:25:28.126Z,42.97
2023-06-05T19:27:54.571Z,44.29
2023-06-05T19:30:21.006Z,44.07
2023-06-05T19:32:47.895Z,43.59
2023-06-05T19:35:14.449Z,44.96
2023-06-05T19:37:40.865Z,44.50
2023-06-05T19:40:07.944Z,44.89
2023-06-05T19:42:34.923Z,46.90
2023-06-05T19:45:04.020Z,47.31
2023-06-05T19:47:30.498Z,47.34
2023-06-05T19:49:57.163Z,46.41
2023-06-05T19:52:23.648Z,47.27
2023-06-05T19:54:50.012Z,47.37
2023-06-05T19:57:16.460Z,47.52
2023-06-05T19:59:44.168Z,48.77
2023-06-05T20:02:12.296Z,49.01
2023-06-05T20:04:39.978Z,48.23
2023-06-05T20:07:06.507Z,48.44
2023-06-05T20:09:32.840Z,48.56
2023-06-05T20:11:59.634Z,48.19
2023-06-05T20:14:26.410Z,48.52
2023-06-05T20:16:52.934Z,48.65
2023-06-05T20:19:19.993Z,49.10
2023-06-05T20:21:46.378Z,50.92
2023-06-05T20:24:12.967Z,50.92
2023-06-05T20:26:39.781Z,50.69
2023-06-05T20:29:09.791Z,50.79
2023-06-05T20:31:36.568Z,51.07
2023-06-05T20:34:03.761Z,50.96
2023-06-05T20:36:30.435Z,51.45
2023-06-05T20:38:57.590Z,51.26
2023-06-05T20:41:24.488Z,52.04
2023-06-05T20:43:51.232Z,52.73
2023-06-05T20:46:18.223Z,53.14
2023-06-05T20:48:44.603Z,53.97
2023-06-05T20:51:11.450Z,54.38
2023-06-05T20:53:38.162Z,53.97
2023-06-05T20:56:05.407Z,54.80
2023-06-05T20:58:31.866Z,55.91
2023-06-05T21:00:58.216Z,55.94
2023-06-05T21:03:24.700Z,55.50
2023-06-05T21:05:51.238Z,55.47
2023-06-05T21:08:17.580Z,55.62
2023-06-05T21:10:44.002Z,55.96
2023-06-05T21:13:10.395Z,56.74
2023-06-05T21:15:37.151Z,57.23
2023-06-05T21:18:03.678Z,56.92
2023-06-05T21:20:30.122Z,56.69
2023-06-05T21:22:56.455Z,56.46
2023-06-05T21:25:23.171Z,56.96
2023-06-05T21:27:49.514Z,56.44
2023-06-05T21:30:16.220Z,56.72
2023-06-05T21:32:42.678Z,57.61
2023-06-05T21:35:09.199Z,58.28
2023-06-05T21:37:35.846Z,58.11
2023-06-05T21:40:02.880Z,58.69
2023-06-05T21:42:29.331Z,58.53
2023-06-05T21:44:55.732Z,58.31
2023-06-05T21:47:22.269Z,58.52
2023-06-05T21:49:48.629Z,59.76
2023-06-05T21:52:16.427Z,59.80
2023-06-05T21:54:42.840Z,60.02
2023-06-05T21:57:10.169Z,60.62
2023-06-05T21:59:36.511Z,60.75
2023-06-05T22:02:03.398Z,61.46
2023-06-05T22:04:30.365Z,61.84
2023-06-05T22:06:57.023Z,61.99
2023-06-05T22:09:23.712Z,62.05
2023-06-05T22:11:50.164Z,62.61
2023-06-05T22:14:16.805Z,62.93
2023-06-05T22:16:43.410Z,63.27
2023-06-05T22:19:10.536Z,63.25
2023-06-05T22:21:37.020Z,62.72
2023-06-05T22:24:03.984Z,62.68
2023-06-05T22:26:30.720Z,62.76
2023-06-05T22:28:57.071Z,62.71
2023-06-05T22:31:24.348Z,64.32
2023-06-05T22:33:53.930Z,64.06
2023-06-05T22:36:20.486Z,64.23
2023-06-05T22:38:46.924Z,64.28
2023-06-05T22:41:14.263Z,65.35
2023-06-05T22:43:40.691Z,65.37
2023-06-05T22:46:07.369Z,65.33
2023-06-05T22:48:33.997Z,64.72
2023-06-05T22:51:00.947Z,65.05
2023-06-05T22:53:27.884Z,66.53
2023-06-05T22:55:54.530Z,64.93
2023-06-05T22:58:21.009Z,64.96
2023-06-05T23:00:47.639Z,65.29
2023-06-05T23:03:14.132Z,65.47
2023-06-05T23:05:40.764Z,65.60
2023-06-05T23:08:08.508Z,65.96
2023-06-05T23:10:34.943Z,65.97
2023-06-05T23:13:01.265Z,65.66
2023-06-05T23:15:27.675Z,65.83
2023-06-05T23:17:54.796Z,66.46
2023-06-05T23:20:21.261Z,66.27
2023-06-05T23:22:47.896Z,66.41
2023-06-05T23:25:14.608Z,66.10
2023-06-05T23:27:41.024Z,66.11
2023-06-05T23:30:07.954Z,66.04
2023-06-05T23:32:34.688Z,67.42
2023-06-05T23:35:01.165Z,66.80
2023-06-05T23:37:27.583Z,67.10
2023-06-05T23:39:53.910Z,67.24
2023-06-05T23:42:20.322Z,67.05
2023-06-05T23:44:47.332Z,67.79
2023-06-05T23:47:13.759Z,68.32
2023-06-05T23:49:40.243Z,68.56
2023-06-05T23:52:07.048Z,68.93
2023-06-05T23:54:33.369Z,69.79
2023-06-05T23:56:59.774Z,69.40
2023-06-05T23:59:26.467Z,69.69
